createdAt,value
2023-03-27T00:00:38.492Z,18360.8457
2023-03-27T00:01:40.105Z,18362.6914
2023-03-27T00:02:41.958Z,18365.3848
2023-03-27T00:03:43.525Z,18363.3848
2023-03-27T00:04:45.062Z,18365.5391
2023-03-27T00:05:46.733Z,18364.3086
2023-03-27T00:06:48.357Z,18361.4609
2023-03-27T00:07:50.016Z,18365.6152
2023-03-27T00:08:51.657Z,18364.3848
2023-03-27T00:09:53.327Z,18362.3848
2023-03-27T00:10:55.178Z,18363.2305
2023-03-27T00:11:56.617Z,18365.6914
2023-03-27T00:12:58.255Z,18363.1543
2023-03-27T00:13:59.926Z,18360.6152
2023-03-27T00:15:01.537Z,18362.9238
2023-03-27T00:16:03.254Z,18362.8457
2023-03-27T00:17:04.883Z,18359.2305
2023-03-27T00:18:06.552Z,18360.5391
2023-03-27T00:19:08.150Z,18364.4609
2023-03-27T00:20:09.833Z,18362.0000
2023-03-27T00:21:11.513Z,18362.6152
2023-03-27T00:22:13.129Z,18361.4609
2023-03-27T00:23:14.767Z,18359.6914
2023-03-27T00:24:16.435Z,18359.6152
2023-03-27T00:25:18.063Z,18360.5391
2023-03-27T00:26:19.758Z,18357.6914
2023-03-27T00:27:21.371Z,18363.5391
2023-03-27T00:28:23.030Z,18360.1543
2023-03-27T00:29:24.672Z,18363.2305
2023-03-27T00:30:26.325Z,18363.3086
2023-03-27T00:31:28.079Z,18363.2305
2023-03-27T00:32:29.653Z,18361.0762
2023-03-27T00:33:31.300Z,18359.3848
2023-03-27T00:34:32.924Z,18361.2305
2023-03-27T00:35:34.672Z,18360.7695
2023-03-27T00:36:36.248Z,18359.0000
2023-03-27T00:37:37.897Z,18359.7695
2023-03-27T00:38:39.740Z,18362.5391
2023-03-27T00:39:41.222Z,18362.7695
2023-03-27T00:40:42.855Z,18364.1543
2023-03-27T00:41:44.531Z,18362.7695
2023-03-27T00:42:46.152Z,18361.1543
2023-03-27T00:43:47.816Z,18360.6914
2023-03-27T00:44:49.442Z,18362.3848
2023-03-27T00:45:51.126Z,18359.9238
2023-03-27T00:46:52.803Z,18362.4609
2023-03-27T00:47:54.428Z,18360.5391
2023-03-27T00:48:56.047Z,18357.2305
2023-03-27T00:49:57.728Z,18360.5391
2023-03-27T00:50:59.356Z,18356.3086
2023-03-27T00:52:01.058Z,18363.1543
2023-03-27T00:53:02.657Z,18362.0762
2023-03-27T00:54:04.329Z,18362.3848
2023-03-27T00:55:05.985Z,18360.4609
2023-03-27T00:56:07.650Z,18362.6914
2023-03-27T00:57:09.333Z,18362.0000
2023-03-27T00:58:10.946Z,18364.2305
2023-03-27T00:59:12.606Z,18363.2305
2023-03-27T01:00:14.282Z,18364.1543
2023-03-27T01:01:15.904Z,18360.8457
2023-03-27T01:02:17.596Z,18363.2305
2023-03-27T01:03:19.275Z,18363.5391
2023-03-27T01:04:20.849Z,18363.8457
2023-03-27T01:05:22.487Z,18365.7695
2023-03-27T01:06:24.149Z,18361.9238
2023-03-27T01:07:25.788Z,18361.7695
2023-03-27T01:08:27.451Z,18359.6914
2023-03-27T01:09:29.084Z,18363.8457
2023-03-27T01:10:30.753Z,18362.6914
2023-03-27T01:11:32.386Z,18360.6152
2023-03-27T01:12:34.069Z,18362.3086
2023-03-27T01:13:35.693Z,18362.8457
2023-03-27T01:14:37.362Z,18365.5391
2023-03-27T01:15:39.013Z,18366.6152
2023-03-27T01:16:40.663Z,18368.5391
2023-03-27T01:17:42.358Z,18364.7695
2023-03-27T01:18:43.946Z,18364.2305
2023-03-27T01:19:45.594Z,18365.0762
2023-03-27T01:20:47.345Z,18366.4609
2023-03-27T01:21:48.904Z,18364.3848
2023-03-27T01:22:50.599Z,18366.0762
2023-03-27T01:23:59.354Z,18364.7695
2023-03-27T01:24:53.889Z,18362.5391
2023-03-27T01:25:55.500Z,18365.7695
2023-03-27T01:26:57.168Z,18367.6152
2023-03-27T01:27:58.832Z,18364.0762
2023-03-27T01:29:00.477Z,18365.7695
2023-03-27T01:30:02.109Z,18364.0000
2023-03-27T01:31:03.798Z,18366.3086
2023-03-27T01:32:05.414Z,18368.3848
2023-03-27T01:33:07.174Z,18369.3848
2023-03-27T01:34:08.718Z,18368.3086
2023-03-27T01:35:10.398Z,18365.3848
2023-03-27T01:36:12.042Z,18368.6914
2023-03-27T01:37:13.706Z,18368.8457
2023-03-27T01:38:15.355Z,18368.7695
2023-03-27T01:39:17.013Z,18366.8457
2023-03-27T01:40:18.639Z,18364.6914
2023-03-27T01:41:20.316Z,18367.6914
2023-03-27T01:42:21.948Z,18369.2305
2023-03-27T01:43:23.647Z,18366.4609
2023-03-27T01:44:25.247Z,18367.3086
2023-03-27T01:45:26.919Z,18368.2305
2023-03-27T01:46:28.587Z,18367.8457
2023-03-27T01:47:30.237Z,18366.3086
2023-03-27T01:48:31.929Z,18367.8457
2023-03-27T01:49:33.531Z,18366.6152
2023-03-27T01:50:35.152Z,18369.1543
2023-03-27T01:51:36.839Z,18368.3848
2023-03-27T01:52:38.488Z,18368.1543
2023-03-27T01:53:40.294Z,18366.1543
2023-03-27T01:54:41.782Z,18368.0000
2023-03-27T01:55:43.441Z,18371.3848
2023-03-27T01:56:45.091Z,18370.4609
2023-03-27T01:57:48.961Z,18370.7695
2023-03-27T01:58:48.405Z,18370.3848
2023-03-27T01:59:50.061Z,18371.6152
2023-03-27T02:01:04.110Z,18370.7695
2023-03-27T02:01:53.357Z,18372.6152
2023-03-27T02:02:55.009Z,18371.3086
2023-03-27T02:03:56.701Z,18368.3086
2023-03-27T02:04:58.322Z,18369.1543
2023-03-27T02:05:59.962Z,18370.6914
2023-03-27T02:07:01.597Z,18368.2305
2023-03-27T02:08:03.282Z,18371.7695
2023-03-27T02:09:04.911Z,18370.1543
2023-03-27T02:10:06.581Z,18369.3848
2023-03-27T02:11:08.284Z,18371.0762
2023-03-27T02:12:09.946Z,18373.6152
2023-03-27T02:13:11.584Z,18369.1543
2023-03-27T02:14:13.278Z,18370.3086
2023-03-27T02:15:23.659Z,18372.6914
2023-03-27T02:16:16.641Z,18371.1543
2023-03-27T02:17:18.201Z,18373.8457
2023-03-27T02:18:19.881Z,18374.4609
2023-03-27T02:19:21.537Z,18371.6152
2023-03-27T02:20:23.186Z,18374.2305
2023-03-27T02:21:24.846Z,18372.3086
2023-03-27T02:22:38.137Z,18374.5391
2023-03-27T02:23:28.132Z,18371.7695
2023-03-27T02:24:29.867Z,18370.9238
2023-03-27T02:25:31.457Z,18373.0762
2023-03-27T02:26:33.125Z,18373.2305
2023-03-27T02:27:34.743Z,18373.9238
2023-03-27T02:28:36.415Z,18372.9238
2023-03-27T02:29:38.080Z,18374.6914
2023-03-27T02:30:39.735Z,18375.1543
2023-03-27T02:31:41.430Z,18375.1543
2023-03-27T02:32:43.163Z,18374.0000
2023-03-27T02:33:44.681Z,18373.6152
2023-03-27T02:34:46.338Z,18376.0762
2023-03-27T02:35:48.022Z,18374.8457
2023-03-27T02:36:49.646Z,18374.0000
2023-03-27T02:37:51.314Z,18374.7695
2023-03-27T02:38:52.950Z,18375.2305
2023-03-27T02:39:54.638Z,18377.0762
2023-03-27T02:40:56.396Z,18377.3848
2023-03-27T02:41:57.911Z,18376.3086
2023-03-27T02:42:59.577Z,18373.7695
2023-03-27T02:44:01.233Z,18374.5391
2023-03-27T02:45:02.891Z,18373.6914
2023-03-27T02:46:04.625Z,18376.6152
2023-03-27T02:47:06.181Z,18375.0762
2023-03-27T02:48:07.900Z,18378.3086
2023-03-27T02:49:09.484Z,18376.5391
2023-03-27T02:50:11.227Z,18376.9238
2023-03-27T02:51:12.803Z,18375.1543
2023-03-27T02:52:14.464Z,18377.6914
2023-03-27T02:53:16.104Z,18372.3848
2023-03-27T02:54:17.766Z,18375.3086
2023-03-27T02:55:19.426Z,18378.0762
2023-03-27T02:56:21.097Z,18377.9238
2023-03-27T02:57:24.967Z,18374.6152
2023-03-27T02:58:24.391Z,18378.9238
2023-03-27T02:59:26.016Z,18376.6914
2023-03-27T03:00:27.712Z,18375.6914
2023-03-27T03:01:29.365Z,18376.3848
2023-03-27T03:02:31.065Z,18377.7695
2023-03-27T03:03:32.646Z,18378.6914
2023-03-27T03:04:34.307Z,18380.3086
2023-03-27T03:05:35.961Z,18379.2305
2023-03-27T03:06:37.608Z,18377.6152
2023-03-27T03:07:39.248Z,18378.2305
2023-03-27T03:08:40.919Z,18378.2305
2023-03-27T03:09:42.555Z,18377.3086
2023-03-27T03:10:44.241Z,18377.4609
2023-03-27T03:11:45.849Z,18378.2305
2023-03-27T03:12:47.515Z,18377.1543
2023-03-27T03:13:49.147Z,18377.0762
2023-03-27T03:14:50.831Z,18376.3848
2023-03-27T03:15:52.507Z,18378.0762
2023-03-27T03:16:54.177Z,18379.7695
2023-03-27T03:17:55.780Z,18384.0000
2023-03-27T03:18:57.451Z,18377.8457
2023-03-27T03:19:59.069Z,18382.6152
2023-03-27T03:21:00.782Z,18382.1543
2023-03-27T03:22:02.386Z,18379.1543
2023-03-27T03:23:04.056Z,18378.8457
2023-03-27T03:24:05.696Z,18380.0000
2023-03-27T03:25:07.370Z,18383.0762
2023-03-27T03:26:09.022Z,18378.0762
2023-03-27T03:27:10.693Z,18380.6152
2023-03-27T03:28:12.303Z,18384.5391
2023-03-27T03:29:13.972Z,18377.1543
2023-03-27T03:30:16.985Z,18379.8457
2023-03-27T03:31:17.362Z,18381.6152
2023-03-27T03:32:18.916Z,18380.5391
2023-03-27T03:33:20.582Z,18378.4609
2023-03-27T03:34:22.203Z,18378.8008
2023-03-27T03:35:23.898Z,18381.6152
2023-03-27T03:36:25.526Z,18379.3848
2023-03-27T03:37:27.178Z,18379.6152
2023-03-27T03:38:28.815Z,18381.4609
2023-03-27T03:39:30.490Z,18379.0000
2023-03-27T03:40:32.112Z,18381.0762
2023-03-27T03:41:33.804Z,18382.7695
2023-03-27T03:42:35.422Z,18378.5391
2023-03-27T03:43:37.086Z,18380.6152
2023-03-27T03:44:38.741Z,18376.3086
2023-03-27T03:45:40.395Z,18377.0000
2023-03-27T03:46:42.041Z,18379.6914
2023-03-27T03:47:43.725Z,18379.6152
2023-03-27T03:48:45.317Z,18378.8457
2023-03-27T03:49:46.993Z,18384.0000
2023-03-27T03:50:48.623Z,18381.7695
2023-03-27T03:52:03.775Z,18378.6152
2023-03-27T03:52:51.921Z,18379.6914
2023-03-27T03:53:53.586Z,18379.8457
2023-03-27T03:54:55.239Z,18377.1543
2023-03-27T03:55:56.883Z,18381.6152
2023-03-27T03:56:58.557Z,18379.2305
2023-03-27T03:58:00.192Z,18384.1543
2023-03-27T03:59:01.846Z,18379.9238
2023-03-27T04:00:03.504Z,18380.4609
2023-03-27T04:01:05.126Z,18380.0000
2023-03-27T04:02:06.837Z,18381.0762
2023-03-27T04:03:08.640Z,18380.6152
2023-03-27T04:04:10.104Z,18381.6152
2023-03-27T04:05:11.745Z,18383.3086
2023-03-27T04:06:13.419Z,18381.0000
2023-03-27T04:07:15.060Z,18384.1543
2023-03-27T04:08:16.715Z,18383.6152
2023-03-27T04:09:18.341Z,18379.3848
2023-03-27T04:10:20.048Z,18383.1543
2023-03-27T04:11:21.660Z,18383.4609
2023-03-27T04:12:23.353Z,18380.7695
2023-03-27T04:13:24.987Z,18384.4609
2023-03-27T04:14:26.622Z,18385.8457
2023-03-27T04:15:28.266Z,18383.3086
2023-03-27T04:16:29.994Z,18381.0000
2023-03-27T04:17:31.622Z,18382.8457
2023-03-27T04:18:33.367Z,18384.0000
2023-03-27T04:19:34.888Z,18382.3848
2023-03-27T04:20:36.537Z,18383.0000
2023-03-27T04:21:38.158Z,18384.0000
2023-03-27T04:22:39.847Z,18383.4609
2023-03-27T04:23:41.463Z,18372.8457
2023-03-27T04:24:43.140Z,18370.6914
2023-03-27T04:25:44.810Z,18366.7695
2023-03-27T04:26:46.441Z,18355.8457
2023-03-27T04:27:48.088Z,18347.1543
2023-03-27T04:28:49.730Z,18345.3848
2023-03-27T04:29:51.369Z,18348.6914
2023-03-27T04:30:53.038Z,18357.5391
2023-03-27T04:31:54.681Z,18352.6914
2023-03-27T04:32:56.389Z,18350.6914
2023-03-27T04:33:57.977Z,18353.5391
2023-03-27T04:34:59.651Z,18353.6152
2023-03-27T04:36:06.360Z,18346.8457
2023-03-27T04:37:02.958Z,18565.5391
2023-03-27T04:38:04.616Z,18646.5391
2023-03-27T04:39:06.260Z,18603.5391
2023-03-27T04:40:07.892Z,18556.1543
2023-03-27T04:41:09.545Z,18518.6152
2023-03-27T04:42:11.178Z,18503.0000
2023-03-27T04:43:12.887Z,18502.9238
2023-03-27T04:44:14.493Z,18494.1543
2023-03-27T04:45:16.190Z,18479.0762
2023-03-27T04:46:17.825Z,18466.0000
2023-03-27T04:47:19.476Z,18450.7695
2023-03-27T04:48:21.140Z,18439.6152
2023-03-27T04:49:22.780Z,18434.7695
2023-03-27T04:50:24.403Z,18439.9238
2023-03-27T04:51:26.089Z,18441.0000
2023-03-27T04:52:27.725Z,18451.7695
2023-03-27T04:53:29.556Z,18522.3848
2023-03-27T04:54:31.055Z,18504.6152
2023-03-27T04:55:32.680Z,18469.7695
2023-03-27T04:56:34.363Z,18433.5391
2023-03-27T04:57:35.987Z,18514.9238
2023-03-27T04:58:37.945Z,18579.6152
2023-03-27T04:59:39.301Z,18589.8457
2023-03-27T05:00:40.987Z,18570.6914
2023-03-27T05:01:42.606Z,18679.8457
2023-03-27T05:02:44.270Z,18710.6914
2023-03-27T05:03:45.976Z,18671.0762
2023-03-27T05:04:47.551Z,18680.8457
2023-03-27T05:05:49.190Z,18719.0762
2023-03-27T05:06:50.872Z,18712.4609
2023-03-27T05:07:52.580Z,18683.6152
2023-03-27T05:08:54.177Z,18671.8457
2023-03-27T05:09:55.777Z,18658.3086
2023-03-27T05:10:57.712Z,18648.6914
2023-03-27T05:11:59.098Z,18637.2305
2023-03-27T05:13:00.769Z,18621.9238
2023-03-27T05:14:02.426Z,18612.0000
2023-03-27T05:15:04.089Z,18601.1543
2023-03-27T05:16:05.720Z,18604.1543
2023-03-27T05:17:07.374Z,18597.7695
2023-03-27T05:18:09.322Z,18580.0762
2023-03-27T05:19:10.767Z,18569.3848
2023-03-27T05:20:12.319Z,18568.0762
2023-03-27T05:21:13.974Z,18574.3086
2023-03-27T05:22:15.626Z,18576.6914
2023-03-27T05:23:17.288Z,18572.3086
2023-03-27T05:24:18.931Z,18559.6914
2023-03-27T05:25:20.586Z,18478.3848
2023-03-27T05:26:22.215Z,18317.3086
2023-03-27T05:27:23.923Z,18305.1543
2023-03-27T05:28:25.525Z,18296.6152
2023-03-27T05:29:27.232Z,18336.7695
2023-03-27T05:30:28.927Z,18363.0762
2023-03-27T05:31:30.573Z,18391.5391
2023-03-27T05:32:32.170Z,18415.2305
2023-03-27T05:33:33.785Z,18426.6914
2023-03-27T05:34:35.496Z,18390.6152
2023-03-27T05:35:37.125Z,18356.6152
2023-03-27T05:36:38.773Z,18330.6152
2023-03-27T05:37:40.405Z,18314.2305
2023-03-27T05:38:42.064Z,18260.8457
2023-03-27T05:39:43.732Z,18266.7695
2023-03-27T05:40:45.374Z,18294.7695
2023-03-27T05:41:47.005Z,18325.0762
2023-03-27T05:42:48.674Z,18354.8457
2023-03-27T05:43:51.241Z,18373.0000
2023-03-27T05:44:51.996Z,18386.9238
2023-03-27T05:45:53.626Z,18395.6152
2023-03-27T05:46:55.291Z,18405.6152
2023-03-27T05:47:56.991Z,18401.0000
2023-03-27T05:48:58.592Z,18405.6914
2023-03-27T05:50:00.249Z,18408.9238
2023-03-27T05:51:01.903Z,18411.7695
2023-03-27T05:52:03.510Z,18410.8457
2023-03-27T05:53:05.200Z,18410.4609
2023-03-27T05:54:06.809Z,18403.4609
2023-03-27T05:55:08.523Z,18392.6914
2023-03-27T05:56:10.116Z,18388.1543
2023-03-27T05:57:11.914Z,18382.0000
2023-03-27T05:58:13.462Z,18383.3086
2023-03-27T05:59:15.077Z,18382.9238
2023-03-27T06:00:16.762Z,18388.6914
2023-03-27T06:01:18.388Z,18389.9238
2023-03-27T06:02:21.517Z,18396.7695
2023-03-27T06:03:21.876Z,18395.3848
2023-03-27T06:04:23.358Z,18397.8457
2023-03-27T06:05:25.023Z,18404.4609
2023-03-27T06:06:26.637Z,18402.5391
2023-03-27T06:07:28.305Z,18404.0000
2023-03-27T06:08:29.933Z,18402.3848
2023-03-27T06:09:31.583Z,18403.3848
2023-03-27T06:10:33.250Z,18409.2305
2023-03-27T06:11:34.889Z,18408.9238
2023-03-27T06:12:36.526Z,18409.0762
2023-03-27T06:13:38.260Z,18410.5391
2023-03-27T06:14:39.906Z,18412.6914
2023-03-27T06:15:41.635Z,18414.6152
2023-03-27T06:16:43.201Z,18413.6152
2023-03-27T06:17:44.894Z,18412.5391
2023-03-27T06:18:46.498Z,18414.9238
2023-03-27T06:19:48.184Z,18412.6152
2023-03-27T06:20:49.815Z,18413.1543
2023-03-27T06:21:51.460Z,18413.4609
2023-03-27T06:22:53.104Z,18415.2305
2023-03-27T06:23:54.763Z,18414.5391
2023-03-27T06:24:56.389Z,18415.6914
2023-03-27T06:25:58.378Z,18413.3848
2023-03-27T06:26:59.691Z,18413.5391
2023-03-27T06:28:01.364Z,18413.6914
2023-03-27T06:29:08.142Z,18416.9238
2023-03-27T06:30:04.676Z,18415.0000
2023-03-27T06:31:06.355Z,18417.0762
2023-03-27T06:32:07.981Z,18414.3086
2023-03-27T06:33:09.621Z,18416.2305
2023-03-27T06:34:11.284Z,18416.9238
2023-03-27T06:35:12.896Z,18418.3086
2023-03-27T06:36:14.625Z,18420.0762
2023-03-27T06:37:16.181Z,18419.3848
2023-03-27T06:38:17.862Z,18416.9238
2023-03-27T06:39:19.479Z,18418.9238
2023-03-27T06:40:21.139Z,18420.5391
2023-03-27T06:41:22.802Z,18421.0762
2023-03-27T06:42:24.445Z,18421.9238
2023-03-27T06:43:26.075Z,18421.2305
2023-03-27T06:44:27.738Z,18421.7695
2023-03-27T06:45:29.393Z,18420.4609
2023-03-27T06:46:42.688Z,18420.8457
2023-03-27T06:47:36.382Z,18421.3848
2023-03-27T06:48:34.366Z,18423.5391
2023-03-27T06:49:35.975Z,18421.8457
2023-03-27T06:50:37.629Z,18421.6152
2023-03-27T06:51:39.281Z,18422.5391
2023-03-27T06:52:40.928Z,18423.5391
2023-03-27T06:53:42.558Z,18422.6914
2023-03-27T06:54:44.216Z,18425.3086
2023-03-27T06:55:45.868Z,18421.7695
2023-03-27T06:56:47.610Z,18424.7695
2023-03-27T06:57:49.166Z,18424.3848
2023-03-27T06:58:50.836Z,18424.6152
2023-03-27T06:59:52.488Z,18422.9238
2023-03-27T07:00:54.129Z,18422.6152
2023-03-27T07:01:55.830Z,18423.3848
2023-03-27T07:02:57.420Z,18424.4609
2023-03-27T07:03:59.065Z,18423.6914
2023-03-27T07:05:04.649Z,18423.6914
2023-03-27T07:06:02.556Z,18423.6152
2023-03-27T07:07:04.049Z,18426.0000
2023-03-27T07:08:18.997Z,18426.4609
2023-03-27T07:09:07.318Z,18425.5391
2023-03-27T07:10:08.962Z,18425.3086
2023-03-27T07:11:12.266Z,18426.6152
2023-03-27T07:12:12.278Z,18427.1543
2023-03-27T07:13:13.919Z,18425.6914
2023-03-27T07:14:15.589Z,18424.8457
2023-03-27T07:15:17.295Z,18428.6152
2023-03-27T07:16:18.892Z,18428.6914
2023-03-27T07:17:20.532Z,18426.6914
2023-03-27T07:18:22.216Z,18427.8457
2023-03-27T07:19:23.822Z,18426.1543
2023-03-27T07:20:25.473Z,18426.2305
2023-03-27T07:21:27.137Z,18425.7695
2023-03-27T07:22:28.799Z,18424.6152
2023-03-27T07:23:30.435Z,18425.6914
2023-03-27T07:24:32.060Z,18426.4609
2023-03-27T07:25:33.744Z,18426.6152
2023-03-27T07:26:35.354Z,18427.7695
2023-03-27T07:27:37.063Z,18427.3086
2023-03-27T07:28:38.729Z,18427.6152
2023-03-27T07:29:40.337Z,18428.9238
2023-03-27T07:30:41.983Z,18429.3848
2023-03-27T07:31:57.525Z,18429.6152
2023-03-27T07:32:45.408Z,18429.0000
2023-03-27T07:33:47.068Z,18430.3086
2023-03-27T07:34:48.579Z,18429.4609
2023-03-27T07:35:50.256Z,18427.9238
2023-03-27T07:36:51.894Z,18427.1543
2023-03-27T07:37:53.579Z,18427.1543
2023-03-27T07:38:55.184Z,18427.6152
2023-03-27T07:39:56.847Z,18429.7695
2023-03-27T07:40:58.504Z,18433.6914
2023-03-27T07:42:00.164Z,18432.8457
2023-03-27T07:43:01.834Z,18431.3086
2023-03-27T07:44:03.464Z,18434.2305
2023-03-27T07:45:05.090Z,18437.5391
2023-03-27T07:46:06.803Z,18431.5391
2023-03-27T07:47:08.397Z,18431.6152
2023-03-27T07:48:10.087Z,18431.7695
2023-03-27T07:49:11.685Z,18430.0000
2023-03-27T07:50:13.380Z,18431.2305
2023-03-27T07:51:14.982Z,18431.7695
2023-03-27T07:52:16.738Z,18433.0762
2023-03-27T07:53:32.806Z,18435.2305
2023-03-27T07:54:19.945Z,18433.8457
2023-03-27T07:55:21.582Z,18431.6914
2023-03-27T07:56:23.276Z,18434.2305
2023-03-27T07:57:25.041Z,18435.0762
2023-03-27T07:58:26.857Z,18432.4609
2023-03-27T07:59:28.197Z,18432.4609
2023-03-27T08:00:29.980Z,18433.2305
2023-03-27T08:01:31.480Z,18433.8457
2023-03-27T08:02:33.188Z,18431.9238
2023-03-27T08:03:34.922Z,18431.8457
2023-03-27T08:04:36.584Z,18435.0000
2023-03-27T08:05:38.080Z,18436.0000
2023-03-27T08:06:39.751Z,18433.0762
2023-03-27T08:07:41.389Z,18434.4609
2023-03-27T08:08:43.092Z,18431.7695
2023-03-27T08:09:44.697Z,18434.8457
2023-03-27T08:10:46.361Z,18433.6914
2023-03-27T08:11:48.010Z,18434.6914
2023-03-27T08:12:49.668Z,18433.5391
2023-03-27T08:13:51.330Z,18436.0762
2023-03-27T08:14:52.968Z,18436.8457
2023-03-27T08:15:54.750Z,18436.8457
2023-03-27T08:17:08.648Z,18435.6152
2023-03-27T08:17:57.937Z,18434.3086
2023-03-27T08:18:59.640Z,18432.0000
2023-03-27T08:20:01.226Z,18437.0762
2023-03-27T08:21:02.957Z,18434.7695
2023-03-27T08:22:04.501Z,18434.0762
2023-03-27T08:23:06.191Z,18437.5391
2023-03-27T08:24:07.833Z,18435.4609
2023-03-27T08:25:09.502Z,18436.4609
2023-03-27T08:26:11.101Z,18434.3848
2023-03-27T08:27:12.798Z,18437.5391
2023-03-27T08:28:14.433Z,18434.6152
2023-03-27T08:29:16.138Z,18438.2305
2023-03-27T08:30:17.794Z,18437.9238
2023-03-27T08:31:19.487Z,18435.9238
2023-03-27T08:32:21.035Z,18435.0000
2023-03-27T08:33:22.739Z,18436.9238
2023-03-27T08:34:24.397Z,18437.8457
2023-03-27T08:35:26.026Z,18438.0000
2023-03-27T08:36:27.632Z,18436.3848
2023-03-27T08:37:29.265Z,18438.9238
2023-03-27T08:38:30.964Z,18435.0000
2023-03-27T08:39:32.630Z,18433.9238
2023-03-27T08:40:34.219Z,18436.8457
2023-03-27T08:41:35.882Z,18434.9238
2023-03-27T08:42:37.556Z,18433.4609
2023-03-27T08:43:39.142Z,18435.6152
2023-03-27T08:44:40.873Z,18435.1543
2023-03-27T08:45:42.470Z,18435.0000
2023-03-27T08:46:44.136Z,18436.6152
2023-03-27T08:48:48.556Z,18436.5391
2023-03-27T08:49:50.144Z,18434.6152
2023-03-27T08:50:51.817Z,18435.1543
2023-03-27T08:51:53.406Z,18435.9238
2023-03-27T08:52:55.059Z,18436.3848
2023-03-27T08:53:56.719Z,18438.3086
2023-03-27T08:54:58.502Z,18436.7695
2023-03-27T08:56:00.003Z,18440.2305
2023-03-27T08:57:01.759Z,18437.8457
2023-03-27T08:58:03.334Z,18436.7695
2023-03-27T08:59:04.992Z,18437.3848
2023-03-27T09:00:06.650Z,18439.3086
2023-03-27T09:01:08.301Z,18435.3848
2023-03-27T09:02:09.989Z,18438.4609
2023-03-27T09:03:11.721Z,18439.6152
2023-03-27T09:04:13.218Z,18438.7695
2023-03-27T09:05:14.931Z,18435.5391
2023-03-27T09:06:16.567Z,18436.6152
2023-03-27T09:07:18.188Z,18439.0762
2023-03-27T09:08:19.804Z,18439.7695
2023-03-27T09:09:21.461Z,18438.3848
2023-03-27T09:10:23.199Z,18435.3848
2023-03-27T09:11:24.804Z,18438.0000
2023-03-27T09:12:26.430Z,18437.4609
2023-03-27T09:13:28.027Z,18440.5391
2023-03-27T09:14:29.686Z,18436.3848
2023-03-27T09:15:31.384Z,18438.8457
2023-03-27T09:16:33.122Z,18438.8457
2023-03-27T09:17:34.683Z,18440.0762
2023-03-27T09:18:36.316Z,18439.4609
2023-03-27T09:19:37.947Z,18440.5391
2023-03-27T09:20:39.662Z,18436.2305
2023-03-27T09:21:41.229Z,18438.3086
2023-03-27T09:22:42.904Z,18439.4609
2023-03-27T09:23:44.523Z,18439.0000
2023-03-27T09:24:46.236Z,18440.5391
2023-03-27T09:25:47.926Z,18440.5391
2023-03-27T09:27:01.072Z,18440.3848
2023-03-27T09:27:51.132Z,18437.6660
2023-03-27T09:28:52.806Z,18441.1543
2023-03-27T09:30:05.960Z,18439.8457
2023-03-27T09:30:56.226Z,18440.5840
2023-03-27T09:31:57.744Z,18438.9238
2023-03-27T09:32:59.448Z,18442.0762
2023-03-27T09:34:01.001Z,18440.5391
2023-03-27T09:35:02.752Z,18440.1543
2023-03-27T09:36:04.460Z,18440.3086
2023-03-27T09:37:06.056Z,18439.9238
2023-03-27T09:38:07.640Z,18441.1543
2023-03-27T09:39:09.314Z,18440.8457
2023-03-27T09:40:10.954Z,18442.3086
2023-03-27T09:41:12.634Z,18443.9238
2023-03-27T09:42:14.238Z,18439.7695
2023-03-27T09:43:15.920Z,18441.9238
2023-03-27T09:44:17.596Z,18440.6152
2023-03-27T09:45:19.301Z,18441.6152
2023-03-27T09:46:20.933Z,18441.6914
2023-03-27T09:47:22.520Z,18437.0000
2023-03-27T09:48:24.185Z,18439.0762
2023-03-27T09:49:25.814Z,18438.1543
2023-03-27T09:50:27.945Z,18438.0762
2023-03-27T09:51:29.269Z,18444.6152
2023-03-27T09:52:30.711Z,18442.3848
2023-03-27T09:53:32.434Z,18440.0762
2023-03-27T09:54:34.058Z,18443.5391
2023-03-27T09:55:35.717Z,18442.3848
2023-03-27T09:56:37.392Z,18444.0000
2023-03-27T09:57:39.077Z,18441.2305
2023-03-27T09:58:40.678Z,18441.2305
2023-03-27T09:59:42.307Z,18440.0000
2023-03-27T10:00:44.031Z,18439.5391
2023-03-27T10:01:45.632Z,18442.9238
2023-03-27T10:02:47.297Z,18442.6152
2023-03-27T10:03:49.108Z,18441.3848
2023-03-27T10:04:50.548Z,18444.8457
2023-03-27T10:05:52.216Z,18443.0000
2023-03-27T10:06:53.852Z,18442.3086
2023-03-27T10:07:55.522Z,18442.9238
2023-03-27T10:08:57.165Z,18443.0000
2023-03-27T10:09:58.836Z,18441.0000
2023-03-27T10:11:00.485Z,18443.0762
2023-03-27T10:12:02.190Z,18443.2305
2023-03-27T10:13:03.767Z,18441.4609
2023-03-27T10:14:05.454Z,18442.6914
2023-03-27T10:15:07.112Z,18441.4609
2023-03-27T10:16:08.837Z,18441.8457
2023-03-27T10:17:10.450Z,18443.6152
2023-03-27T10:18:12.199Z,18441.6914
2023-03-27T10:19:13.855Z,18443.7695
2023-03-27T10:20:15.491Z,18445.3848
2023-03-27T10:21:17.100Z,18445.3086
2023-03-27T10:22:18.766Z,18447.6152
2023-03-27T10:23:20.359Z,18445.6914
2023-03-27T10:24:22.005Z,18443.8457
2023-03-27T10:25:23.678Z,18449.1543
2023-03-27T10:26:25.343Z,18448.6914
2023-03-27T10:27:26.976Z,18448.0000
2023-03-27T10:28:28.609Z,18448.1543
2023-03-27T10:29:30.262Z,18446.0000
2023-03-27T10:30:31.912Z,18447.5391
2023-03-27T10:31:33.588Z,18447.0000
2023-03-27T10:32:35.268Z,18447.6914
2023-03-27T10:33:36.885Z,18449.9238
2023-03-27T10:34:38.517Z,18447.3086
2023-03-27T10:35:40.179Z,18448.1543
2023-03-27T10:36:41.842Z,18448.3848
2023-03-27T10:37:49.773Z,18449.3086
2023-03-27T10:38:45.132Z,18445.6660
2023-03-27T10:39:46.756Z,18447.8457
2023-03-27T10:40:48.426Z,18444.6152
2023-03-27T10:41:50.067Z,18448.4609
2023-03-27T10:42:51.782Z,18444.6152
2023-03-27T10:43:53.360Z,18446.8457
2023-03-27T10:44:55.030Z,18444.8457
2023-03-27T10:45:56.764Z,18446.9238
2023-03-27T10:46:58.347Z,18444.8457
2023-03-27T10:48:00.038Z,18445.9238
2023-03-27T10:49:01.635Z,18444.1543
2023-03-27T10:50:03.267Z,18444.7695
2023-03-27T10:51:04.945Z,18445.6914
2023-03-27T10:52:06.560Z,18449.0762
2023-03-27T10:53:08.336Z,18446.0000
2023-03-27T10:54:09.902Z,18448.0762
2023-03-27T10:55:11.537Z,18445.8457
2023-03-27T10:56:13.176Z,18443.6152
2023-03-27T10:57:14.868Z,18445.5391
2023-03-27T10:58:16.481Z,18444.0000
2023-03-27T10:59:21.509Z,18446.4609
2023-03-27T11:00:19.763Z,18445.5840
2023-03-27T11:01:21.505Z,18447.0000
2023-03-27T11:02:23.115Z,18445.9238
2023-03-27T11:03:24.807Z,18446.2305
2023-03-27T11:04:26.378Z,18444.8457
2023-03-27T11:05:28.092Z,18445.3086
2023-03-27T11:06:29.698Z,18442.9238
2023-03-27T11:07:31.369Z,18445.1543
2023-03-27T11:08:33.062Z,18442.6914
2023-03-27T11:09:34.708Z,18445.5391
2023-03-27T11:10:36.320Z,18443.6152
2023-03-27T11:11:38.031Z,18444.4609
2023-03-27T11:12:39.608Z,18444.0000
2023-03-27T11:13:41.279Z,18446.7695
2023-03-27T11:14:42.917Z,18444.0762
2023-03-27T11:15:44.608Z,18444.3086
2023-03-27T11:16:46.242Z,18446.0000
2023-03-27T11:17:47.905Z,18441.6914
2023-03-27T11:18:49.573Z,18442.5391
2023-03-27T11:19:51.176Z,18446.6152
2023-03-27T11:20:52.789Z,18443.1543
2023-03-27T11:21:54.485Z,18446.9238
2023-03-27T11:22:56.138Z,18443.8457
2023-03-27T11:23:57.926Z,18444.3848
2023-03-27T11:24:59.429Z,18440.5391